Time;durP1;ratioP1;P1;durP2;ratioP2;P2;SDS_P1;SDS_P2;PMS_P1;PMS_P2;Temp;Humidity;BMP_temperature;BMP_pressure;BME280_temperature;BME280_humidity;BME280_pressure;Samples;Min_cycle;Max_cycle;Signal;HPM_P1;HPM_P2
2024/03/03 00:00:29;;;;;;;24.33;21.83;;;8.00;99.90;;;;;;4841060;29;20333;-77
2024/03/03 00:02:55;;;;;;;27.63;24.43;;;7.90;99.90;;;;;;4841218;29;20238;-77
2024/03/03 00:05:22;;;;;;;29.77;25.43;;;7.80;99.90;;;;;;4841740;29;20710;-77
2024/03/03 00:07:49;;;;;;;25.67;22.80;;;7.80;99.90;;;;;;4841459;29;20641;-77
2024/03/03 00:10:16;;;;;;;25.87;23.07;;;7.80;99.90;;;;;;4840574;29;20218;-77
2024/03/03 00:12:44;;;;;;;26.60;23.80;;;7.90;99.90;;;;;;4841468;29;20199;-78
2024/03/03 00:15:11;;;;;;;25.50;22.80;;;7.90;99.90;;;;;;4841643;29;20254;-77
2024/03/03 00:17:38;;;;;;;27.53;24.17;;;7.90;99.90;;;;;;4841132;29;20202;-77
2024/03/03 00:20:06;;;;;;;25.90;23.30;;;7.90;99.90;;;;;;4839712;29;20637;-77
2024/03/03 00:22:33;;;;;;;25.33;22.67;;;7.90;99.90;;;;;;4840047;29;20234;-76
2024/03/03 00:25:00;;;;;;;28.37;25.10;;;7.90;99.90;;;;;;4841769;29;20218;-77
2024/03/03 00:27:29;;;;;;;28.87;24.33;;;7.90;99.90;;;;;;4837261;29;20202;-77
2024/03/03 00:29:58;;;;;;;26.60;23.80;;;7.90;99.90;;;;;;4841038;29;20203;-77
2024/03/03 00:32:25;;;;;;;28.27;25.17;;;7.80;99.90;;;;;;4840128;29;20206;-77
2024/03/03 00:34:51;;;;;;;26.33;22.90;;;7.90;99.90;;;;;;4840447;29;20284;-77
2024/03/03 00:37:18;;;;;;;28.23;24.37;;;7.90;99.90;;;;;;4840531;29;20212;-77
2024/03/03 00:39:45;;;;;;;24.20;21.77;;;7.90;99.90;;;;;;4839976;29;20216;-77
2024/03/03 00:42:12;;;;;;;31.63;27.97;;;7.80;99.90;;;;;;4839610;29;20309;-77
2024/03/03 00:44:39;;;;;;;28.43;25.17;;;7.80;99.90;;;;;;4839736;29;20238;-77
2024/03/03 00:47:07;;;;;;;26.63;23.73;;;7.80;99.90;;;;;;4840001;29;20210;-77
2024/03/03 00:49:34;;;;;;;25.23;22.73;;;7.90;99.90;;;;;;4839975;29;20214;-77
2024/03/03 00:52:02;;;;;;;26.73;23.90;;;7.80;99.90;;;;;;4840971;29;20200;-77
2024/03/03 00:54:29;;;;;;;29.73;26.07;;;7.80;99.90;;;;;;4839598;29;20914;-77
2024/03/03 00:56:56;;;;;;;32.67;28.47;;;7.80;99.90;;;;;;4839628;29;20722;-77
2024/03/03 00:59:23;;;;;;;28.57;25.13;;;7.80;99.90;;;;;;4839978;29;20207;-77
2024/03/03 01:01:49;;;;;;;28.57;24.20;;;7.80;99.90;;;;;;4839595;29;20237;-77
2024/03/03 01:04:17;;;;;;;27.37;24.47;;;7.80;99.90;;;;;;4839882;29;20234;-77
2024/03/03 01:06:44;;;;;;;27.10;24.20;;;7.80;99.90;;;;;;4839787;29;20207;-77
2024/03/03 01:09:11;;;;;;;29.00;24.73;;;7.60;99.90;;;;;;4840105;29;20263;-76
2024/03/03 01:11:39;;;;;;;28.90;24.57;;;7.70;99.90;;;;;;4843054;29;20242;-77
2024/03/03 01:14:05;;;;;;;30.70;25.93;;;7.60;99.90;;;;;;4843331;29;20291;-77
2024/03/03 01:16:32;;;;;;;25.00;22.47;;;7.50;99.90;;;;;;4843302;29;20214;-77
2024/03/03 01:18:59;;;;;;;27.67;23.60;;;7.50;99.90;;;;;;4844417;29;20198;-77
2024/03/03 01:21:27;;;;;;;28.30;25.43;;;7.40;99.90;;;;;;4844237;29;20679;-77
2024/03/03 01:23:56;;;;;;;31.40;27.60;;;7.40;99.90;;;;;;4842813;29;20229;-77
2024/03/03 01:26:23;;;;;;;31.80;27.63;;;7.30;99.90;;;;;;4843434;29;20229;-77
2024/03/03 01:28:49;;;;;;;37.23;29.70;;;7.20;99.90;;;;;;4843143;29;20202;-77
2024/03/03 01:31:16;;;;;;;33.80;29.73;;;7.10;99.90;;;;;;4843194;29;20209;-77
2024/03/03 01:33:43;;;;;;;32.83;27.90;;;7.10;99.90;;;;;;4842934;29;20671;-76
2024/03/03 01:36:11;;;;;;;32.80;28.07;;;7.10;99.90;;;;;;4842731;29;20202;-77
2024/03/03 01:38:39;;;;;;;30.80;25.90;;;7.00;99.90;;;;;;4842880;29;20232;-77
2024/03/03 01:41:06;;;;;;;28.30;25.27;;;6.90;99.90;;;;;;4843988;29;20203;-77
2024/03/03 01:43:32;;;;;;;32.80;28.07;;;6.90;99.90;;;;;;4843797;29;20237;-77
2024/03/03 01:45:59;;;;;;;32.90;27.37;;;6.70;99.90;;;;;;4842787;29;20229;-77
2024/03/03 01:48:26;;;;;;;31.07;27.47;;;6.70;99.90;;;;;;4842472;29;20726;-78
2024/03/03 01:50:55;;;;;;;29.63;26.50;;;6.70;99.90;;;;;;4842415;29;20218;-77
2024/03/03 01:53:22;;;;;;;34.83;29.60;;;6.60;99.90;;;;;;4842767;29;20304;-77
2024/03/03 01:55:51;;;;;;;33.27;28.63;;;6.60;99.90;;;;;;4842318;29;20226;-76
2024/03/03 01:58:18;;;;;;;33.03;29.10;;;6.50;99.90;;;;;;4842504;29;20205;-77
2024/03/03 02:00:46;;;;;;;38.77;30.93;;;6.50;99.90;;;;;;4842373;29;20212;-77
2024/03/03 02:03:14;;;;;;;36.67;30.27;;;6.50;99.90;;;;;;4842221;29;20308;-77
2024/03/03 02:05:41;;;;;;;33.07;28.90;;;6.40;99.90;;;;;;4842204;29;20706;-77
2024/03/03 02:08:08;;;;;;;35.33;29.40;;;6.40;99.90;;;;;;4842162;29;20210;-77
2024/03/03 02:10:36;;;;;;;36.47;30.33;;;6.30;99.90;;;;;;4842256;29;20333;-77
2024/03/03 02:13:05;;;;;;;35.70;29.20;;;6.30;99.90;;;;;;4842117;29;20696;-77
2024/03/03 02:15:32;;;;;;;34.97;29.00;;;6.20;99.90;;;;;;4842215;29;20248;-77
2024/03/03 02:17:58;;;;;;;31.30;27.20;;;6.20;99.90;;;;;;4842112;29;20206;-76
2024/03/03 02:20:27;;;;;;;31.27;27.77;;;6.10;99.90;;;;;;4842125;29;20591;-77
2024/03/03 02:22:55;;;;;;;31.40;26.50;;;6.10;99.90;;;;;;4841270;29;20293;-77
2024/03/03 02:25:22;;;;;;;36.50;29.50;;;6.10;99.90;;;;;;4842186;29;20222;-76
2024/03/03 02:27:49;;;;;;;36.43;31.17;;;6.10;99.90;;;;;;4842116;29;20216;-77
2024/03/03 02:30:16;;;;;;;38.67;30.47;;;6.10;99.90;;;;;;4841695;29;20216;-77
2024/03/03 02:32:43;;;;;;;34.53;29.63;;;6.00;99.90;;;;;;4843284;29;20205;-77
2024/03/03 02:35:10;;;;;;;37.03;29.70;;;6.00;99.90;;;;;;4841744;29;20231;-77
2024/03/03 02:37:37;;;;;;;37.13;31.47;;;6.00;99.90;;;;;;4842059;29;20298;-77
2024/03/03 02:40:07;;;;;;;37.10;30.37;;;5.90;99.90;;;;;;4843058;29;20593;-77
2024/03/03 02:42:34;;;;;;;37.83;30.90;;;5.90;99.90;;;;;;4841838;29;20235;-76
2024/03/03 02:45:01;;;;;;;37.33;30.90;;;5.80;99.90;;;;;;4842854;29;20231;-77
2024/03/03 02:47:27;;;;;;;31.47;27.97;;;5.70;99.90;;;;;;4841606;29;20213;-77
2024/03/03 02:49:54;;;;;;;36.73;29.97;;;5.70;99.90;;;;;;4841543;29;20220;-77
2024/03/03 02:52:21;;;;;;;37.47;30.87;;;5.60;99.90;;;;;;4841615;29;20204;-77
2024/03/03 02:54:48;;;;;;;37.80;30.07;;;5.60;99.90;;;;;;4842763;29;20230;-77
2024/03/03 02:57:16;;;;;;;40.57;32.30;;;5.60;99.90;;;;;;4841651;29;20204;-77
2024/03/03 02:59:43;;;;;;;39.40;30.87;;;5.60;99.90;;;;;;4842558;29;20207;-77
2024/03/03 03:02:10;;;;;;;35.03;29.20;;;5.60;99.90;;;;;;4841385;29;20279;-77
2024/03/03 03:04:36;;;;;;;37.00;29.33;;;5.50;99.90;;;;;;4841079;29;20735;-76
2024/03/03 03:07:04;;;;;;;36.27;30.00;;;5.40;99.90;;;;;;4841626;29;20196;-77
2024/03/03 03:09:31;;;;;;;35.93;30.00;;;5.40;99.90;;;;;;4841292;29;20228;-77
2024/03/03 03:11:58;;;;;;;37.30;30.50;;;5.30;99.90;;;;;;4841025;29;20219;-77
2024/03/03 03:14:28;;;;;;;37.63;30.30;;;5.40;99.90;;;;;;4841244;29;20669;-78
2024/03/03 03:16:54;;;;;;;36.23;29.57;;;5.30;99.90;;;;;;4841126;29;20212;-77
2024/03/03 03:19:23;;;;;;;35.73;30.67;;;5.30;99.90;;;;;;4840906;29;20228;-77
2024/03/03 03:21:50;;;;;;;35.23;29.97;;;5.30;99.90;;;;;;4841030;29;20286;-77
2024/03/03 03:24:16;;;;;;;39.03;30.73;;;5.20;99.90;;;;;;4840476;29;20259;-77
2024/03/03 03:26:43;;;;;;;35.37;29.93;;;5.20;99.90;;;;;;4841473;29;20212;-76
2024/03/03 03:29:10;;;;;;;35.63;30.43;;;5.20;99.90;;;;;;4842806;29;20261;-76
2024/03/03 03:31:38;;;;;;;40.20;31.83;;;5.20;99.90;;;;;;4843560;29;20217;-77
2024/03/03 03:34:05;;;;;;;37.67;32.40;;;5.20;99.90;;;;;;4841875;29;20251;-77
2024/03/03 03:36:32;;;;;;;39.17;32.17;;;5.20;99.90;;;;;;4843421;29;20263;-78
2024/03/03 03:39:01;;;;;;;43.70;32.93;;;5.10;99.90;;;;;;4842259;29;20746;-75
2024/03/03 03:41:28;;;;;;;41.70;32.70;;;5.10;99.90;;;;;;4840438;29;20671;-76
2024/03/03 03:43:55;;;;;;;40.17;32.00;;;5.10;99.90;;;;;;4842218;29;20232;-77
2024/03/03 03:46:21;;;;;;;41.07;31.40;;;5.00;99.90;;;;;;4856664;29;20675;-76
2024/03/03 03:48:49;;;;;;;44.27;33.13;;;5.00;99.90;;;;;;4841877;29;20231;-76
2024/03/03 03:51:16;;;;;;;39.00;32.53;;;5.00;99.90;;;;;;4857311;29;20222;-76
2024/03/03 03:53:43;;;;;;;41.43;33.50;;;4.90;99.90;;;;;;4843408;29;20674;-75
2024/03/03 03:56:10;;;;;;;38.47;31.50;;;4.90;99.90;;;;;;4842476;29;20290;-76
2024/03/03 03:58:37;;;;;;;39.13;32.57;;;4.90;99.90;;;;;;4843200;29;20290;-77
2024/03/03 04:01:04;;;;;;;47.00;34.80;;;4.80;99.90;;;;;;4833877;29;20596;-79
2024/03/03 04:03:31;;;;;;;41.67;33.50;;;4.80;99.90;;;;;;4853122;29;20227;-79
2024/03/03 04:05:59;;;;;;;41.80;32.50;;;4.80;99.90;;;;;;4848225;29;20235;-77
2024/03/03 04:08:26;;;;;;;40.93;33.03;;;4.70;99.90;;;;;;4840865;29;20217;-78
2024/03/03 04:10:53;;;;;;;39.53;31.80;;;4.80;99.90;;;;;;4842498;29;20672;-79
2024/03/03 04:13:20;;;;;;;42.57;33.20;;;4.80;99.90;;;;;;4841253;29;20199;-78
2024/03/03 04:15:46;;;;;;;39.73;31.53;;;4.70;99.90;;;;;;4835079;29;20227;-79
2024/03/03 04:18:13;;;;;;;44.67;32.83;;;4.80;99.90;;;;;;4836643;29;20267;-79
2024/03/03 04:20:40;;;;;;;39.83;30.23;;;4.80;99.90;;;;;;4834329;29;20227;-79
2024/03/03 04:23:08;;;;;;;37.63;31.17;;;4.80;99.90;;;;;;4838389;29;20241;-79
2024/03/03 04:25:35;;;;;;;40.37;31.67;;;4.70;99.90;;;;;;4839204;29;20287;-79
2024/03/03 04:28:02;;;;;;;41.63;31.80;;;4.80;99.90;;;;;;4839296;29;20267;-79
2024/03/03 04:30:29;;;;;;;39.73;31.90;;;4.80;99.90;;;;;;4840832;29;20224;-78
2024/03/03 04:32:55;;;;;;;46.20;34.20;;;4.80;99.90;;;;;;4840001;29;20286;-77
2024/03/03 04:35:22;;;;;;;42.57;32.37;;;4.80;99.90;;;;;;4837451;29;20219;-77
2024/03/03 04:37:49;;;;;;;39.80;32.13;;;4.90;99.90;;;;;;4839216;29;20223;-78
2024/03/03 04:40:17;;;;;;;40.10;31.20;;;4.80;99.90;;;;;;4841767;29;20217;-78
2024/03/03 04:42:46;;;;;;;39.70;32.50;;;4.80;99.90;;;;;;4844761;29;20228;-76
2024/03/03 04:45:14;;;;;;;42.50;32.87;;;4.80;99.90;;;;;;4845038;29;20254;-78
2024/03/03 04:47:41;;;;;;;37.33;31.30;;;4.80;99.90;;;;;;4844955;29;20275;-77
2024/03/03 04:50:16;;;;;;;38.83;30.10;;;4.80;99.90;;;;;;4840428;29;20292;-80
2024/03/03 04:52:43;;;;;;;35.07;29.23;;;4.70;99.90;;;;;;4845480;29;20683;-79
2024/03/03 04:55:09;;;;;;;36.30;31.30;;;4.80;99.90;;;;;;4839455;29;20226;-79
2024/03/03 04:57:38;;;;;;;45.70;34.13;;;4.80;99.90;;;;;;4845415;29;20203;-79
2024/03/03 05:00:09;;;;;;;42.37;33.30;;;4.80;99.90;;;;;;4843650;29;20212;-78
2024/03/03 05:02:35;;;;;;;35.77;30.53;;;4.80;99.90;;;;;;4843832;29;20238;-79
2024/03/03 05:05:03;;;;;;;38.73;31.17;;;4.80;99.90;;;;;;4843660;29;20237;-79
2024/03/03 05:07:31;;;;;;;44.00;33.37;;;4.80;99.90;;;;;;4843860;29;20230;-78
2024/03/03 05:09:58;;;;;;;43.73;33.30;;;4.80;99.90;;;;;;4844594;29;20207;-79
2024/03/03 05:12:24;;;;;;;43.03;32.53;;;4.80;99.90;;;;;;4845040;29;20210;-79
2024/03/03 05:14:53;;;;;;;41.23;32.50;;;4.80;99.90;;;;;;4843929;29;20226;-79
2024/03/03 05:17:20;;;;;;;40.37;32.20;;;4.80;99.90;;;;;;4843899;29;20218;-79
2024/03/03 05:19:46;;;;;;;42.27;33.27;;;4.80;99.90;;;;;;4843847;29;20263;-79
2024/03/03 05:22:13;;;;;;;40.90;31.70;;;4.70;99.90;;;;;;4844814;29;20727;-79
2024/03/03 05:24:40;;;;;;;39.73;31.17;;;4.60;99.90;;;;;;4844553;29;20302;-79
2024/03/03 05:27:07;;;;;;;44.80;32.87;;;4.70;99.90;;;;;;4843407;29;20215;-78
2024/03/03 05:29:34;;;;;;;39.83;32.23;;;4.60;99.90;;;;;;4844841;29;20198;-80
2024/03/03 05:32:02;;;;;;;40.90;31.27;;;4.60;99.90;;;;;;4840171;29;20235;-78
2024/03/03 05:34:29;;;;;;;41.60;33.33;;;4.60;99.90;;;;;;4845370;29;20234;-77
2024/03/03 05:36:56;;;;;;;43.37;33.03;;;4.50;99.90;;;;;;4845381;29;20203;-78
2024/03/03 05:39:22;;;;;;;42.77;33.73;;;4.50;99.90;;;;;;4843552;29;20299;-77
2024/03/03 05:41:50;;;;;;;45.93;34.83;;;4.50;99.90;;;;;;4844394;29;20210;-78
2024/03/03 05:44:17;;;;;;;47.83;34.43;;;4.50;99.90;;;;;;4844040;29;20234;-78
2024/03/03 05:46:43;;;;;;;43.80;33.37;;;4.50;99.90;;;;;;4843823;29;20245;-78
2024/03/03 05:49:12;;;;;;;47.57;34.47;;;4.50;99.90;;;;;;4843647;29;20237;-77
2024/03/03 05:51:38;;;;;;;45.73;33.53;;;4.60;99.90;;;;;;4848093;29;20626;-77
2024/03/03 05:54:06;;;;;;;49.33;35.53;;;4.60;99.90;;;;;;4846878;29;20306;-76
2024/03/03 05:56:33;;;;;;;43.17;33.10;;;4.60;99.90;;;;;;4842893;29;20202;-76
2024/03/03 05:58:59;;;;;;;41.67;33.00;;;4.60;99.90;;;;;;4842920;29;20295;-77
2024/03/03 06:01:26;;;;;;;41.20;32.87;;;4.50;99.90;;;;;;4843730;29;20219;-77
2024/03/03 06:03:53;;;;;;;48.97;38.23;;;4.50;99.90;;;;;;4842724;29;20274;-77
2024/03/03 06:06:21;;;;;;;47.63;35.53;;;4.50;99.90;;;;;;4844582;29;20221;-78
2024/03/03 06:08:50;;;;;;;46.40;35.40;;;4.50;99.90;;;;;;4844591;29;20202;-77
2024/03/03 06:11:18;;;;;;;45.13;34.70;;;4.60;99.90;;;;;;4844303;29;20211;-77
2024/03/03 06:13:45;;;;;;;48.60;36.43;;;4.70;99.90;;;;;;4844377;29;20204;-76
2024/03/03 06:16:11;;;;;;;42.57;34.53;;;4.60;99.90;;;;;;4844564;29;20199;-76
2024/03/03 06:18:38;;;;;;;44.07;35.60;;;4.70;99.90;;;;;;4844592;29;20554;-76
2024/03/03 06:21:07;;;;;;;42.77;34.10;;;4.70;99.90;;;;;;4844804;29;20697;-76
2024/03/03 06:23:36;;;;;;;42.93;33.27;;;4.80;99.90;;;;;;4844506;29;20730;-76
2024/03/03 06:26:02;;;;;;;42.33;34.40;;;4.80;99.90;;;;;;4843211;29;20211;-76
2024/03/03 06:28:29;;;;;;;38.87;33.43;;;4.80;99.90;;;;;;4843242;29;20604;-76
2024/03/03 06:30:56;;;;;;;44.10;33.27;;;4.90;99.90;;;;;;4844146;29;20714;-77
2024/03/03 06:33:23;;;;;;;44.00;34.23;;;5.00;99.90;;;;;;4843013;29;20636;-77
2024/03/03 06:35:52;;;;;;;45.47;34.17;;;5.10;99.90;;;;;;4846234;29;20238;-78
2024/03/03 06:38:19;;;;;;;38.23;32.00;;;5.20;99.90;;;;;;4848103;29;20204;-77
2024/03/03 06:40:48;;;;;;;37.13;30.30;;;5.30;99.90;;;;;;4847313;29;20590;-78
2024/03/03 06:43:15;;;;;;;32.80;28.83;;;5.30;99.90;;;;;;4846865;29;20211;-78
2024/03/03 06:45:43;;;;;;;36.33;30.13;;;5.40;99.90;;;;;;4842951;29;20267;-78
2024/03/03 06:48:10;;;;;;;35.43;30.33;;;5.60;99.90;;;;;;4842220;29;20677;-78
2024/03/03 06:50:36;;;;;;;40.03;30.63;;;5.90;99.90;;;;;;4841860;29;20207;-80
2024/03/03 06:53:03;;;;;;;40.10;32.60;;;6.30;99.90;;;;;;4843881;29;20517;-76
2024/03/03 06:55:30;;;;;;;38.33;31.80;;;6.60;99.90;;;;;;4843421;29;20291;-77
2024/03/03 06:57:59;;;;;;;41.43;34.10;;;6.80;99.90;;;;;;4843374;29;20212;-81
2024/03/03 07:00:26;;;;;;;40.33;34.00;;;7.00;99.90;;;;;;4850707;29;20283;-79
2024/03/03 07:03:12;;;;;;;35.00;31.17;;;7.40;99.90;;;;;;4842349;29;20242;-79
2024/03/03 07:05:40;;;;;;;36.73;31.70;;;7.70;99.90;;;;;;4842201;29;20785;-78
2024/03/03 07:08:07;;;;;;;37.77;31.47;;;8.00;99.90;;;;;;4841588;29;20245;-78
2024/03/03 07:10:34;;;;;;;38.23;26.10;;;8.20;99.90;;;;;;4841487;29;20214;-79
2024/03/03 07:13:03;;;;;;;42.47;32.70;;;8.40;99.90;;;;;;4835784;29;20234;-78
2024/03/03 07:15:29;;;;;;;38.67;31.10;;;8.40;99.90;;;;;;4842113;29;20601;-79
2024/03/03 07:17:56;;;;;;;40.43;32.50;;;8.40;99.90;;;;;;4842317;29;20689;-79
2024/03/03 07:20:23;;;;;;;36.13;29.73;;;8.40;99.90;;;;;;4841691;29;20759;-78
2024/03/03 07:22:50;;;;;;;35.77;29.83;;;8.40;99.90;;;;;;4841933;29;20202;-79
2024/03/03 07:25:17;;;;;;;36.27;29.97;;;8.40;99.90;;;;;;4841532;29;20230;-76
2024/03/03 07:27:43;;;;;;;35.10;28.40;;;8.40;99.90;;;;;;4845269;29;20214;-78
2024/03/03 07:30:13;;;;;;;32.63;28.30;;;8.30;99.90;;;;;;4842150;29;20207;-81
2024/03/03 07:32:41;;;;;;;37.67;30.00;;;8.20;99.90;;;;;;4840542;29;20210;-77
2024/03/03 07:35:08;;;;;;;30.57;27.20;;;8.10;99.90;;;;;;4836657;29;20226;-78
2024/03/03 07:37:35;;;;;;;31.20;27.73;;;8.10;99.90;;;;;;4849834;29;20211;-78
2024/03/03 07:40:02;;;;;;;32.47;28.20;;;8.00;99.90;;;;;;4840727;29;20242;-78
2024/03/03 07:42:32;;;;;;;35.90;28.53;;;7.90;99.90;;;;;;4835937;29;20218;-78
2024/03/03 07:44:59;;;;;;;41.23;30.90;;;7.80;99.90;;;;;;4842196;29;20237;-78
2024/03/03 07:47:30;;;;;;;35.77;28.57;;;7.80;99.90;;;;;;4839997;29;20205;-82
2024/03/03 07:50:02;;;;;;;31.53;27.33;;;7.80;99.90;;;;;;4842032;29;20203;-80
2024/03/03 07:52:29;;;;;;;32.07;27.13;;;7.80;99.90;;;;;;4837634;29;20651;-78
2024/03/03 07:54:55;;;;;;;35.50;29.43;;;7.80;99.90;;;;;;4840806;29;20646;-78
2024/03/03 07:57:22;;;;;;;34.43;28.37;;;7.90;99.90;;;;;;4834093;29;20238;-77
2024/03/03 07:59:49;;;;;;;36.77;29.90;;;7.90;99.90;;;;;;4840294;29;20202;-78
2024/03/03 08:02:16;;;;;;;35.50;28.63;;;7.80;99.90;;;;;;4842278;29;20210;-78
2024/03/03 08:04:44;;;;;;;33.63;28.57;;;7.90;99.90;;;;;;4842219;29;20227;-81
2024/03/03 08:07:11;;;;;;;33.17;26.40;;;8.00;99.90;;;;;;4842239;29;20706;-78
2024/03/03 08:09:37;;;;;;;31.37;27.13;;;8.00;99.90;;;;;;4838021;29;20676;-78
2024/03/03 08:12:05;;;;;;;27.50;24.50;;;8.10;99.90;;;;;;4837591;29;20750;-78
2024/03/03 08:14:31;;;;;;;32.13;25.93;;;8.20;99.90;;;;;;4836529;29;20595;-78
2024/03/03 08:16:58;;;;;;;32.00;27.33;;;8.20;99.90;;;;;;4840801;29;20241;-78
2024/03/03 08:19:26;;;;;;;33.97;28.00;;;8.20;99.90;;;;;;4840414;29;20199;-78
2024/03/03 08:21:56;;;;;;;36.30;28.83;;;8.10;99.90;;;;;;4839867;29;20298;-78
2024/03/03 08:24:22;;;;;;;30.40;27.07;;;8.10;99.90;;;;;;4840701;29;20230;-78
2024/03/03 08:26:49;;;;;;;33.63;27.57;;;8.10;99.90;;;;;;4839955;29;20210;-78
2024/03/03 08:29:17;;;;;;;30.27;26.97;;;8.10;99.90;;;;;;4841745;29;20230;-78
2024/03/03 08:31:44;;;;;;;30.87;27.23;;;8.10;99.90;;;;;;4840257;29;20213;-79
2024/03/03 08:34:11;;;;;;;30.60;25.93;;;8.10;99.90;;;;;;4841599;29;20218;-78
2024/03/03 08:36:40;;;;;;;28.47;24.53;;;8.20;99.90;;;;;;4841871;29;20202;-79
2024/03/03 08:39:10;;;;;;;29.57;25.47;;;8.30;99.90;;;;;;4840825;29;20225;-78
2024/03/03 08:41:38;;;;;;;26.47;23.67;;;8.40;99.90;;;;;;4839929;29;20321;-78
2024/03/03 08:44:06;;;;;;;26.97;23.77;;;8.50;99.90;;;;;;4840290;29;20231;-78
2024/03/03 08:46:33;;;;;;;29.37;25.83;;;8.50;99.90;;;;;;4838441;29;20222;-78
2024/03/03 08:49:00;;;;;;;28.70;25.60;;;8.40;99.90;;;;;;4840387;29;20309;-78
2024/03/03 08:51:28;;;;;;;31.03;27.73;;;8.40;99.90;;;;;;4841006;29;20211;-80
2024/03/03 08:53:55;;;;;;;29.87;25.87;;;8.40;99.90;;;;;;4841552;29;20223;-78
2024/03/03 08:56:23;;;;;;;29.13;26.00;;;8.50;99.90;;;;;;4841399;29;20207;-78
2024/03/03 08:58:50;;;;;;;28.43;25.53;;;8.40;99.90;;;;;;4840127;29;20210;-78
2024/03/03 09:01:17;;;;;;;26.53;23.93;;;8.50;99.90;;;;;;4841308;29;20671;-78
2024/03/03 09:03:44;;;;;;;25.70;22.80;;;8.60;99.90;;;;;;4841335;29;20263;-78
2024/03/03 09:06:11;;;;;;;29.53;25.27;;;8.70;99.90;;;;;;4840287;29;20313;-78
2024/03/03 09:08:38;;;;;;;31.53;28.17;;;8.70;99.90;;;;;;4840113;29;20590;-78
2024/03/03 09:11:06;;;;;;;27.37;24.33;;;8.80;99.90;;;;;;4840223;29;20207;-78
2024/03/03 09:13:35;;;;;;;24.93;21.50;;;9.00;99.90;;;;;;4841420;29;20735;-78
2024/03/03 09:16:02;;;;;;;25.50;22.80;;;9.20;99.90;;;;;;4841369;29;20233;-78
2024/03/03 09:18:28;;;;;;;26.00;21.50;;;9.20;99.90;;;;;;4840031;29;20217;-78
2024/03/03 09:20:55;;;;;;;27.33;24.40;;;9.30;99.90;;;;;;4839664;29;20281;-78
2024/03/03 09:23:22;;;;;;;28.80;25.80;;;9.40;99.90;;;;;;4840215;29;20647;-78
2024/03/03 09:25:49;;;;;;;27.07;24.17;;;9.40;99.90;;;;;;4840586;29;20716;-78
2024/03/03 09:28:16;;;;;;;26.37;23.10;;;9.50;99.90;;;;;;4841576;29;20242;-79
2024/03/03 09:30:47;;;;;;;25.23;22.57;;;9.60;99.90;;;;;;4839350;29;20256;-78
2024/03/03 09:33:14;;;;;;;25.70;23.03;;;9.70;99.90;;;;;;4842888;29;20204;-77
2024/03/03 09:35:41;;;;;;;24.23;19.77;;;9.90;99.90;;;;;;4843728;29;20703;-80
2024/03/03 09:38:08;;;;;;;23.33;19.20;;;10.10;99.90;;;;;;4836955;29;20206;-80
2024/03/03 09:40:38;;;;;;;25.77;23.13;;;10.20;99.90;;;;;;4839065;29;20260;-81
2024/03/03 09:43:06;;;;;;;24.50;22.00;;;10.30;99.90;;;;;;4843111;29;20273;-81
2024/03/03 09:45:38;;;;;;;23.60;21.20;;;10.50;99.90;;;;;;4843894;29;20304;-81
2024/03/03 09:48:09;;;;;;;26.00;23.20;;;10.50;99.90;;;;;;4843684;29;20209;-81
2024/03/03 09:50:37;;;;;;;24.77;22.27;;;10.70;99.90;;;;;;4843235;29;20212;-80
2024/03/03 09:53:08;;;;;;;23.80;21.10;;;10.70;99.90;;;;;;4847682;29;20195;-80
2024/03/03 09:55:38;;;;;;;22.90;20.67;;;10.90;99.90;;;;;;4844134;29;20343;-81
2024/03/03 09:58:11;;;;;;;17.87;14.57;;;11.00;99.90;;;;;;4843284;29;20237;-81
2024/03/03 10:00:44;;;;;;;16.87;14.43;;;11.20;99.90;;;;;;4843283;29;20309;-81
2024/03/03 10:03:42;;;;;;;22.87;15.83;;;11.40;99.90;;;;;;4843408;29;20682;-81
2024/03/03 10:06:27;;;;;;;17.80;15.43;;;11.20;99.90;;;;;;4815020;29;20312;-80
2024/03/03 10:09:01;;;;;;;21.57;19.37;;;11.30;99.90;;;;;;4842884;29;20303;-81
2024/03/03 10:11:36;;;;;;;17.17;13.67;;;11.40;99.90;;;;;;4841805;29;20214;-81
2024/03/03 10:14:04;;;;;;;15.97;13.20;;;11.50;99.90;;;;;;4848428;29;20317;-79
2024/03/03 10:16:33;;;;;;;16.50;13.47;;;11.60;99.90;;;;;;4838943;29;20620;-79
2024/03/03 10:19:00;;;;;;;16.20;13.50;;;11.60;99.90;;;;;;4836987;29;20559;-79
2024/03/03 10:21:34;;;;;;;15.07;13.17;;;11.60;99.90;;;;;;4838873;29;20207;-78
2024/03/03 10:24:18;;;;;;;17.43;15.67;;;11.60;99.90;;;;;;4856345;29;20252;-78
2024/03/03 10:26:45;;;;;;;19.53;17.43;;;11.60;99.90;;;;;;4841175;29;20271;-78
2024/03/03 10:29:12;;;;;;;23.80;21.30;;;11.60;99.90;;;;;;4838886;29;20202;-80
2024/03/03 10:31:39;;;;;;;19.80;17.13;;;11.50;99.90;;;;;;4842522;29;20202;-78
2024/03/03 10:34:06;;;;;;;21.70;19.40;;;11.60;99.90;;;;;;4843483;29;20645;-79
2024/03/03 10:36:34;;;;;;;18.43;15.00;;;11.60;99.90;;;;;;4846198;29;20640;-77
2024/03/03 10:39:01;;;;;;;21.03;18.87;;;11.60;99.90;;;;;;4843752;29;20301;-77
2024/03/03 10:41:27;;;;;;;19.07;14.70;;;11.60;99.90;;;;;;4843769;29;20237;-78
2024/03/03 10:43:55;;;;;;;15.03;13.27;;;11.70;99.90;;;;;;4841386;29;20277;-78
2024/03/03 10:46:24;;;;;;;19.43;17.60;;;11.90;99.90;;;;;;4843763;29;20219;-77
2024/03/03 10:48:54;;;;;;;16.60;13.73;;;12.10;99.90;;;;;;4842570;29;20230;-78
2024/03/03 10:51:22;;;;;;;18.70;14.60;;;12.10;99.90;;;;;;4844226;29;20712;-78
2024/03/03 10:53:55;;;;;;;16.27;12.97;;;12.20;99.90;;;;;;4850369;29;20282;-80
2024/03/03 10:56:23;;;;;;;12.63;11.10;;;12.30;99.90;;;;;;4844659;29;20281;-78
2024/03/03 10:58:51;;;;;;;16.07;12.40;;;12.50;99.90;;;;;;4841824;29;20237;-78
2024/03/03 11:01:19;;;;;;;15.43;12.47;;;12.70;99.90;;;;;;4843036;29;20199;-79
2024/03/03 11:03:47;;;;;;;20.40;18.50;;;12.80;99.90;;;;;;4842975;29;20644;-78
2024/03/03 11:06:15;;;;;;;18.97;17.20;;;12.90;99.90;;;;;;4841688;29;20232;-78
2024/03/03 11:08:49;;;;;;;14.60;12.43;;;13.00;99.90;;;;;;4842572;29;20208;-78
2024/03/03 11:11:21;;;;;;;19.23;17.60;;;13.30;99.90;;;;;;4843151;29;20282;-78
2024/03/03 11:13:55;;;;;;;19.20;17.50;;;13.50;99.90;;;;;;4842853;29;20215;-78
2024/03/03 11:16:27;;;;;;;16.57;15.07;;;13.70;99.90;;;;;;4841815;29;20206;-78
2024/03/03 11:18:56;;;;;;;19.53;17.73;;;13.80;99.90;;;;;;4841301;29;20210;-78
2024/03/03 11:21:29;;;;;;;18.90;17.20;;;13.70;99.90;;;;;;4841575;29;20292;-78
2024/03/03 11:24:01;;;;;;;18.47;16.97;;;13.70;99.90;;;;;;4841267;29;20599;-78
2024/03/03 11:26:34;;;;;;;14.53;11.13;;;13.80;99.90;;;;;;4841434;29;20237;-78
2024/03/03 11:29:03;;;;;;;11.87;10.50;;;13.90;99.90;;;;;;4841298;29;20692;-78
2024/03/03 11:31:30;;;;;;;11.73;10.63;;;13.80;99.90;;;;;;4842248;29;20240;-78
2024/03/03 11:33:59;;;;;;;17.30;15.73;;;13.90;99.90;;;;;;4842772;29;20234;-78
2024/03/03 11:36:27;;;;;;;17.43;15.77;;;14.00;99.90;;;;;;4844636;29;20449;-77
2024/03/03 11:38:57;;;;;;;17.73;16.23;;;14.10;99.90;;;;;;4845790;29;20755;-78
2024/03/03 11:41:24;;;;;;;11.57;9.90;;;14.20;99.90;;;;;;4845188;29;20234;-77
2024/03/03 11:43:53;;;;;;;12.83;11.60;;;14.30;99.90;;;;;;4842642;29;20237;-81
2024/03/03 11:46:45;;;;;;;12.17;10.27;;;14.50;99.90;;;;;;4841523;29;20224;-79
2024/03/03 11:49:12;;;;;;;15.27;13.97;;;14.60;99.90;;;;;;4840666;29;20212;-79
2024/03/03 11:51:39;;;;;;;14.53;13.23;;;14.80;99.90;;;;;;4841614;29;20306;-79
2024/03/03 11:54:07;;;;;;;13.00;11.03;;;14.90;99.90;;;;;;4840922;29;20381;-79
2024/03/03 11:56:45;;;;;;;11.30;9.37;;;14.80;99.90;;;;;;4840459;29;20211;-79
2024/03/03 11:59:13;;;;;;;11.10;10.00;;;14.80;99.90;;;;;;4844426;29;20742;-77
2024/03/03 12:01:42;;;;;;;12.13;10.97;;;14.80;99.90;;;;;;4842378;29;20217;-78
2024/03/03 12:04:13;;;;;;;12.20;11.07;;;14.80;99.90;;;;;;4844778;29;20225;-80
2024/03/03 12:06:42;;;;;;;11.90;10.80;;;14.80;99.90;;;;;;4840344;29;20876;-77
2024/03/03 12:09:11;;;;;;;12.37;11.20;;;14.80;99.90;;;;;;4834466;29;20205;-78
2024/03/03 12:11:37;;;;;;;12.50;11.50;;;14.80;99.90;;;;;;4841110;29;20743;-77
2024/03/03 12:14:04;;;;;;;10.67;9.80;;;14.80;99.90;;;;;;4836508;29;20226;-78
2024/03/03 12:16:32;;;;;;;6.20;5.77;;;14.90;99.90;;;;;;4840674;29;20259;-79
2024/03/03 12:18:58;;;;;;;4.37;4.03;;;14.90;99.90;;;;;;4840089;29;20216;-79
2024/03/03 12:21:26;;;;;;;8.23;7.73;;;15.10;99.90;;;;;;4839720;29;20206;-78
2024/03/03 12:23:53;;;;;;;8.43;7.93;;;15.20;99.90;;;;;;4840004;29;20831;-79
2024/03/03 12:26:20;;;;;;;8.00;7.50;;;15.30;99.90;;;;;;4841517;29;20339;-79
2024/03/03 12:28:47;;;;;;;8.83;8.13;;;15.30;99.90;;;;;;4841827;29;20693;-79
2024/03/03 12:31:14;;;;;;;8.10;7.60;;;15.30;99.90;;;;;;4841620;29;20205;-78
2024/03/03 12:33:43;;;;;;;8.33;7.73;;;15.40;99.90;;;;;;4841254;29;20291;-78
2024/03/03 12:36:10;;;;;;;8.40;7.80;;;15.40;99.90;;;;;;4841060;29;20280;-78
2024/03/03 12:38:37;;;;;;;8.87;8.33;;;15.40;99.90;;;;;;4841383;29;20579;-78